Time;durP1;ratioP1;P1;durP2;ratioP2;P2;SDS_P1;SDS_P2;PMS_P1;PMS_P2;Temp;Humidity;BMP_temperature;BMP_pressure;BME280_temperature;BME280_humidity;BME280_pressure;Samples;Min_cycle;Max_cycle;Signal;HPM_P1;HPM_P2
2023/08/03 00:00:07;;;;;;;3.63;1.20;;;;;;;14.97;100.00;98877.16;5012683;28;20038;-94
2023/08/03 00:02:36;;;;;;;3.53;1.45;;;;;;;15.05;100.00;98888.19;5012254;28;20026;-95
2023/08/03 00:05:02;;;;;;;2.47;0.93;;;;;;;15.07;100.00;98899.44;5011381;28;20034;-96
2023/08/03 00:07:28;;;;;;;4.32;1.58;;;;;;;15.04;100.00;98895.53;5010902;28;20457;-93
2023/08/03 00:09:53;;;;;;;2.90;1.40;;;;;;;15.04;100.00;98886.63;5011168;28;20033;-94
2023/08/03 00:12:18;;;;;;;2.17;1.50;;;;;;;15.11;100.00;98905.75;4993569;28;20033;-94
2023/08/03 00:14:44;;;;;;;3.10;1.60;;;;;;;15.08;100.00;98904.50;5011462;28;20033;-95
2023/08/03 00:17:10;;;;;;;4.68;1.80;;;;;;;15.07;100.00;98900.22;5010753;28;20025;-94
2023/08/03 00:19:36;;;;;;;3.77;1.90;;;;;;;15.02;100.00;98881.56;5012482;28;20423;-94
2023/08/03 00:22:01;;;;;;;3.22;2.03;;;;;;;15.07;100.00;98902.13;5015339;28;20074;-94
2023/08/03 00:24:27;;;;;;;6.33;2.83;;;;;;;14.98;100.00;98891.44;5030627;28;20076;-95
2023/08/03 00:26:52;;;;;;;5.72;3.30;;;;;;;15.07;100.00;98907.53;5012748;28;20030;-94
2023/08/03 00:29:17;;;;;;;6.97;3.13;;;;;;;15.01;100.00;98906.16;5022767;28;20053;-94
2023/08/03 00:31:43;;;;;;;9.83;3.60;;;;;;;15.04;100.00;98919.00;5025054;28;20030;-95
2023/08/03 00:34:08;;;;;;;13.93;4.50;;;;;;;15.06;100.00;98916.75;5011859;28;20108;-94
2023/08/03 00:36:33;;;;;;;9.73;4.50;;;;;;;15.10;100.00;98928.44;5011620;28;20038;-94
2023/08/03 00:38:58;;;;;;;11.83;5.20;;;;;;;15.05;100.00;98929.47;5012244;28;20028;-95
2023/08/03 00:41:24;;;;;;;12.68;5.32;;;;;;;15.06;100.00;98938.31;4993160;28;20091;-94
2023/08/03 00:43:49;;;;;;;11.50;5.20;;;;;;;15.07;100.00;98942.59;5010576;28;20037;-95
2023/08/03 00:46:15;;;;;;;11.73;5.40;;;;;;;15.15;100.00;98949.81;5009545;28;20038;-94
2023/08/03 00:48:40;;;;;;;12.37;5.83;;;;;;;15.10;100.00;98945.41;5010132;28;20033;-96
2023/08/03 00:51:05;;;;;;;26.80;6.67;;;;;;;15.17;100.00;98963.75;5011776;28;20072;-96
2023/08/03 00:53:31;;;;;;;16.77;6.32;;;;;;;15.21;100.00;98971.97;5011167;28;20022;-96
2023/08/03 00:55:56;;;;;;;38.00;6.77;;;;;;;15.18;100.00;98968.00;5013308;28;20092;-96
2023/08/03 00:58:22;;;;;;;16.80;6.23;;;;;;;15.15;100.00;98968.72;5000398;28;20820;-96
2023/08/03 01:00:47;;;;;;;20.20;7.45;;;;;;;15.14;100.00;98959.03;4998260;28;20504;-96
2023/08/03 01:03:13;;;;;;;21.10;7.13;;;;;;;15.22;100.00;98989.75;5018351;28;20033;-96
2023/08/03 01:05:38;;;;;;;34.43;7.53;;;;;;;15.19;100.00;98990.41;4986129;28;20037;-96
2023/08/03 01:08:05;;;;;;;24.92;8.30;;;;;;;15.20;100.00;99000.84;5004214;28;20033;-96
2023/08/03 01:10:31;;;;;;;32.50;8.37;;;;;;;15.19;100.00;99001.19;5022654;28;20029;-96
2023/08/03 01:12:57;;;;;;;17.95;7.95;;;;;;;15.15;100.00;98998.38;5019922;28;20042;-96
2023/08/03 01:15:23;;;;;;;20.30;8.43;;;;;;;15.22;100.00;99008.63;5004556;28;20046;-96
2023/08/03 01:17:48;;;;;;;20.40;8.60;;;;;;;15.16;100.00;99001.84;5000004;28;20033;-96
2023/08/03 01:20:18;;;;;;;16.10;8.67;;;;;;;15.18;100.00;99013.09;5011586;28;20079;-96
2023/08/03 01:22:43;;;;;;;21.42;10.07;;;;;;;15.14;100.00;98999.50;5012211;28;20040;-96
2023/08/03 01:25:10;;;;;;;20.40;10.25;;;;;;;15.20;100.00;99010.88;5010684;28;20109;-96
2023/08/03 01:27:35;;;;;;;19.33;9.67;;;;;;;15.20;100.00;99021.66;5012122;28;20627;-96
2023/08/03 01:30:00;;;;;;;17.48;9.18;;;;;;;15.21;100.00;99026.69;4992977;28;20072;-95
2023/08/03 01:32:26;;;;;;;19.17;9.83;;;;;;;15.15;100.00;99019.97;5011604;28;20069;-95
2023/08/03 01:34:51;;;;;;;18.83;9.50;;;;;;;15.21;100.00;99034.03;5010337;28;20030;-96
2023/08/03 01:37:19;;;;;;;16.10;6.88;;;;;;;15.20;100.00;99033.22;5012085;28;20032;-96
2023/08/03 01:39:45;;;;;;;15.53;8.53;;;;;;;15.20;100.00;99027.81;5011831;28;20461;-96
2023/08/03 01:42:14;;;;;;;12.47;7.73;;;;;;;15.23;100.00;99035.25;5014416;28;20312;-95
2023/08/03 01:44:41;;;;;;;16.83;8.43;;;;;;;15.14;100.00;99029.16;5031773;28;20034;-96
2023/08/03 01:47:07;;;;;;;14.93;7.25;;;;;;;15.22;100.00;99041.78;5012113;28;20088;-96
2023/08/03 01:49:33;;;;;;;18.50;7.63;;;;;;;15.21;100.00;99048.28;5021728;28;20026;-96
2023/08/03 01:51:59;;;;;;;12.73;6.57;;;;;;;15.22;100.00;99047.16;5008588;28;20498;-95
2023/08/03 01:54:25;;;;;;;13.52;6.40;;;;;;;15.10;100.00;99039.81;5012917;28;20035;-95
2023/08/03 01:56:52;;;;;;;13.55;5.50;;;;;;;15.04;100.00;99035.78;4998040;28;20029;-96
2023/08/03 01:59:18;;;;;;;13.48;4.97;;;;;;;15.05;100.00;99036.53;4997558;28;20018;-95
2023/08/03 02:01:43;;;;;;;14.30;5.33;;;;;;;15.02;100.00;99038.00;5015272;28;20080;-96
2023/08/03 02:04:08;;;;;;;11.07;4.23;;;;;;;15.02;100.00;99035.31;5010583;28;20478;-95
2023/08/03 02:06:34;;;;;;;11.90;3.87;;;;;;;15.08;100.00;99046.69;5000672;28;20026;-96
2023/08/03 02:08:59;;;;;;;19.67;4.00;;;;;;;15.08;100.00;99038.59;5014727;28;20375;-96
2023/08/03 02:11:26;;;;;;;13.03;4.10;;;;;;;15.08;100.00;99046.69;5016279;28;20466;-95
2023/08/03 02:13:51;;;;;;;11.75;4.35;;;;;;;15.03;100.00;99039.59;5016875;28;20087;-95
2023/08/03 02:16:17;;;;;;;12.33;4.03;;;;;;;15.08;100.00;99047.44;5017910;28;20025;-96
2023/08/03 02:18:42;;;;;;;15.07;4.70;;;;;;;15.09;100.00;99046.34;5014306;28;20029;-96
2023/08/03 02:21:07;;;;;;;14.30;5.28;;;;;;;15.06;100.00;99046.22;5013706;28;20026;-96
2023/08/03 02:23:33;;;;;;;27.47;6.33;;;;;;;15.11;100.00;99052.19;4998914;28;20036;-96
2023/08/03 02:26:02;;;;;;;21.40;5.50;;;;;;;15.12;100.00;99064.56;5015448;28;20122;-96
2023/08/03 02:28:27;;;;;;;21.53;5.70;;;;;;;14.99;100.00;99034.03;5017696;28;20018;-96
2023/08/03 02:30:53;;;;;;;20.95;5.97;;;;;;;15.11;100.00;99054.88;5019128;28;20029;-96
2023/08/03 02:33:18;;;;;;;27.97;6.53;;;;;;;15.07;100.00;99039.69;5017360;28;20029;-95
2023/08/03 02:35:43;;;;;;;22.73;6.20;;;;;;;15.03;100.00;99038.78;5008194;28;20030;-95
2023/08/03 02:38:09;;;;;;;30.63;6.30;;;;;;;15.05;100.00;99033.84;5021000;28;20112;-96
2023/08/03 02:40:34;;;;;;;28.52;6.40;;;;;;;15.08;100.00;99050.16;5024336;28;20109;-96
2023/08/03 02:43:00;;;;;;;27.33;6.53;;;;;;;14.96;100.00;99028.53;5022608;28;20049;-96
2023/08/03 02:45:25;;;;;;;21.93;6.30;;;;;;;15.03;100.00;99030.69;5023876;28;20022;-96
2023/08/03 02:47:51;;;;;;;24.43;6.30;;;;;;;15.03;100.00;99028.00;5021565;28;20034;-96
2023/08/03 02:50:16;;;;;;;31.95;6.70;;;;;;;15.01;100.00;99035.63;5022368;28;20022;-96
2023/08/03 02:52:42;;;;;;;34.30;6.53;;;;;;;15.03;100.00;99044.16;5020124;28;20038;-96
2023/08/03 02:55:07;;;;;;;21.30;6.30;;;;;;;15.01;100.00;99041.00;5024877;28;20040;-96
2023/08/03 02:57:32;;;;;;;22.70;6.55;;;;;;;15.02;100.00;99042.59;5028831;28;20026;-96
2023/08/03 02:59:58;;;;;;;29.37;6.03;;;;;;;15.01;100.00;99043.72;5028322;28;20065;-96
2023/08/03 03:02:23;;;;;;;31.93;7.03;;;;;;;14.94;100.00;99042.34;5021719;28;20032;-94
2023/08/03 03:04:51;;;;;;;24.87;5.80;;;;;;;14.98;100.00;99056.72;5035520;28;20018;-94
2023/08/03 03:07:16;;;;;;;23.98;6.50;;;;;;;14.97;100.00;99057.84;5016888;28;20017;-96
2023/08/03 03:09:42;;;;;;;25.07;6.37;;;;;;;14.76;100.00;99027.44;5020252;28;20033;-94
2023/08/03 03:12:08;;;;;;;27.30;7.07;;;;;;;14.87;100.00;99055.56;5030966;28;20090;-95
2023/08/03 03:14:35;;;;;;;25.67;6.28;;;;;;;14.93;100.00;99061.53;5013653;28;20103;-95
2023/08/03 03:17:01;;;;;;;24.08;5.93;;;;;;;14.92;100.00;99066.16;5014135;28;20052;-95
2023/08/03 03:19:26;;;;;;;27.73;6.72;;;;;;;14.94;100.00;99072.03;5014410;28;20069;-95
2023/08/03 03:21:51;;;;;;;31.77;6.17;;;;;;;14.86;100.00;99069.41;5013475;28;20057;-94
2023/08/03 03:24:17;;;;;;;24.67;6.00;;;;;;;14.94;100.00;99087.41;5011199;28;20645;-95
2023/08/03 03:26:42;;;;;;;21.83;6.03;;;;;;;14.92;100.00;99071.56;5013288;28;20092;-95
2023/08/03 03:29:07;;;;;;;23.57;6.00;;;;;;;14.88;100.00;99067.94;5016589;28;20046;-95
2023/08/03 03:31:33;;;;;;;24.65;5.85;;;;;;;14.80;100.00;99058.81;5018076;28;20550;-96
2023/08/03 03:34:00;;;;;;;16.60;5.83;;;;;;;14.81;100.00;99070.34;5017699;28;20513;-96
2023/08/03 03:36:25;;;;;;;20.45;5.45;;;;;;;14.82;100.00;99070.03;5026926;28;20026;-94
2023/08/03 03:38:51;;;;;;;22.03;5.50;;;;;;;14.81;100.00;99081.94;5034096;28;20044;-95
2023/08/03 03:41:16;;;;;;;16.63;5.17;;;;;;;14.91;100.00;99098.84;5031027;28;20070;-93
2023/08/03 03:43:41;;;;;;;21.17;5.70;;;;;;;14.83;100.00;99087.81;5035699;28;20053;-96
2023/08/03 03:46:07;;;;;;;17.20;5.17;;;;;;;14.92;100.00;99116.59;5019975;28;20481;-96
2023/08/03 03:48:33;;;;;;;22.33;6.00;;;;;;;14.91;100.00;99113.13;5009303;28;20097;-95
2023/08/03 03:50:58;;;;;;;22.50;5.37;;;;;;;14.86;100.00;99105.22;5023687;28;20481;-94
2023/08/03 03:53:23;;;;;;;15.53;5.33;;;;;;;14.90;100.00;99119.63;5011445;28;20034;-96
2023/08/03 03:55:48;;;;;;;20.77;5.63;;;;;;;14.90;100.00;99122.34;5031370;28;20280;-96
2023/08/03 03:58:14;;;;;;;22.33;5.43;;;;;;;14.79;100.00;99110.38;5035379;28;20567;-95
2023/08/03 04:00:43;;;;;;;18.53;5.03;;;;;;;14.90;100.00;99127.72;5027754;28;20037;-96
2023/08/03 04:03:09;;;;;;;19.95;4.97;;;;;;;14.84;100.00;99126.34;5000528;28;20061;-96
2023/08/03 04:05:35;;;;;;;19.05;5.00;;;;;;;14.76;100.00;99119.88;5055877;23;20037;-96
2023/08/03 04:08:01;;;;;;;17.03;4.20;;;;;;;14.56;100.00;99099.84;5057999;28;20060;-96
2023/08/03 04:10:28;;;;;;;11.97;4.40;;;;;;;14.87;100.00;99141.09;5057677;28;20268;-96
2023/08/03 04:12:53;;;;;;;12.63;4.20;;;;;;;14.72;100.00;99123.56;5057202;28;20080;-96
2023/08/03 04:15:19;;;;;;;15.10;4.53;;;;;;;14.81;100.00;99133.19;5050735;28;20045;-96
2023/08/03 04:17:45;;;;;;;14.23;4.97;;;;;;;14.90;100.00;99156.59;5026049;28;20022;-96
2023/08/03 04:20:12;;;;;;;17.50;4.65;;;;;;;14.65;100.00;99121.34;5036980;28;20042;-96
2023/08/03 04:22:38;;;;;;;13.23;4.05;;;;;;;14.53;100.00;99103.97;5038929;28;20014;-96
2023/08/03 04:25:04;;;;;;;21.25;5.20;;;;;;;14.82;100.00;99148.25;5040134;28;20036;-96
2023/08/03 04:27:30;;;;;;;16.35;5.82;;;;;;;14.90;100.00;99161.97;5058420;28;20016;-96
2023/08/03 04:29:55;;;;;;;17.87;5.57;;;;;;;14.59;100.00;99123.47;5057925;28;20040;-96
2023/08/03 04:32:21;;;;;;;13.07;4.53;;;;;;;14.77;100.00;99153.81;5056174;28;20096;-92
2023/08/03 04:34:46;;;;;;;17.53;5.57;;;;;;;14.90;100.00;99178.16;5038424;28;20033;-95
2023/08/03 04:37:11;;;;;;;16.30;4.70;;;;;;;14.89;100.00;99185.47;5014418;28;20457;-93
2023/08/03 04:39:37;;;;;;;15.20;5.03;;;;;;;14.86;100.00;99179.94;5031175;28;20036;-95
2023/08/03 04:42:02;;;;;;;16.23;4.60;;;;;;;14.81;100.00;99189.00;5022184;28;20308;-93
2023/08/03 04:44:28;;;;;;;10.73;4.13;;;;;;;14.77;100.00;99180.00;5027298;28;20120;-95
2023/08/03 04:46:53;;;;;;;12.93;4.57;;;;;;;14.95;100.00;99213.84;5031256;28;20025;-92
2023/08/03 04:49:19;;;;;;;11.37;4.00;;;;;;;14.98;100.00;99217.78;5033107;28;20489;-95
2023/08/03 04:51:44;;;;;;;8.82;4.07;;;;;;;14.92;100.00;99201.00;5013972;28;20104;-92
2023/08/03 04:54:13;;;;;;;13.20;4.40;;;;;;;14.98;100.00;99212.38;5013272;28;20562;-96
2023/08/03 04:56:38;;;;;;;9.18;3.85;;;;;;;14.88;100.00;99208.16;5020703;28;20034;-96
2023/08/03 04:59:04;;;;;;;8.60;3.70;;;;;;;14.94;100.00;99217.66;5037921;28;20507;-96
2023/08/03 05:01:29;;;;;;;7.50;3.38;;;;;;;14.84;100.00;99207.22;5017870;28;20025;-96
2023/08/03 05:03:55;;;;;;;7.03;2.97;;;;;;;14.93;100.00;99229.56;5015660;28;20102;-96
2023/08/03 05:06:20;;;;;;;7.63;3.17;;;;;;;14.96;100.00;99233.50;5016284;28;20045;-96
2023/08/03 05:08:46;;;;;;;10.80;3.57;;;;;;;14.88;100.00;99224.34;5036678;28;20029;-95
2023/08/03 05:11:12;;;;;;;8.85;3.72;;;;;;;14.91;100.00;99234.47;5036231;28;20426;-96
2023/08/03 05:13:40;;;;;;;8.97;3.63;;;;;;;14.99;100.00;99247.09;5033658;28;20089;-95
2023/08/03 05:16:05;;;;;;;7.65;3.88;;;;;;;15.02;100.00;99245.69;5015769;28;20023;-96
2023/08/03 05:21:53;;;;;;;7.60;2.97;;;;;;;14.78;100.00;99214.72;5014672;28;20080;-96
2023/08/03 05:28:42;;;;;;;7.72;2.58;;;;;;;14.94;100.00;99233.03;5013575;28;20014;-96
2023/08/03 05:31:31;;;;;;;;;;;;;;;;;;;;;
2023/08/03 05:33:59;;;;;;;6.32;2.53;;;;;;;14.84;100.00;99259.25;5046330;28;20192;-96
2023/08/03 05:39:56;;;;;;;;;;;;;;;;;;;;;
2023/08/03 05:42:40;;;;;;;14.30;3.13;;;;;;;15.03;100.00;99262.63;5520779;22;20105;-96
2023/08/03 05:46:01;;;;;;;;;;;;;;;;;;;;;
2023/08/03 05:54:29;;;;;;;10.73;2.83;;;;;;;15.27;100.00;99280.91;5117812;22;20045;-96
2023/08/03 05:57:23;;;;;;;8.40;2.35;;;;;;;15.47;100.00;99327.94;5038310;28;20032;-96
2023/08/03 06:00:23;;;;;;;15.23;2.85;;;;;;;15.12;100.00;99285.75;5327272;22;20038;-96
2023/08/03 06:02:51;;;;;;;11.73;2.10;;;;;;;15.07;100.00;99298.66;5053449;28;20149;-96
2023/08/03 06:06:00;;;;;;;13.25;2.17;;;;;;;15.32;100.00;99339.31;5053700;28;20033;-96
2023/08/03 06:09:17;;;;;;;7.93;1.92;;;;;;;14.96;100.00;99299.03;5047549;28;20029;-96
2023/08/03 06:12:31;;;;;;;10.20;1.95;;;;;;;14.99;100.00;99303.75;5040586;28;20014;-96
2023/08/03 06:15:25;;;;;;;10.05;2.00;;;;;;;14.95;100.00;99296.63;5052654;28;20052;-96
2023/08/03 06:18:37;;;;;;;12.00;2.10;;;;;;;15.35;100.00;99357.53;5032435;28;20025;-96
2023/08/03 06:27:17;;;;;;;11.25;2.00;;;;;;;15.13;100.00;99314.31;6090429;22;20100;-94
2023/08/03 06:29:45;;;;;;;11.75;2.08;;;;;;;15.18;100.00;99316.03;5021483;28;20034;-96
2023/08/03 06:32:23;;;;;;;13.38;2.45;;;;;;;15.40;100.00;99350.06;5013585;28;20416;-92
2023/08/03 06:38:12;;;;;;;8.53;1.97;;;;;;;15.39;100.00;99359.28;5002852;28;20037;-95
2023/08/03 06:40:40;;;;;;;11.23;2.10;;;;;;;15.60;100.00;99385.53;5010888;28;21037;-88
2023/08/03 06:43:05;;;;;;;12.45;2.30;;;;;;;15.61;100.00;99384.41;5017231;28;20474;-92
2023/08/03 06:45:31;;;;;;;7.85;2.13;;;;;;;15.53;100.00;99396.03;5033385;28;20048;-90
2023/08/03 06:48:00;;;;;;;13.07;2.20;;;;;;;15.49;100.00;99393.19;5031091;28;20029;-91
2023/08/03 06:50:31;;;;;;;10.87;2.30;;;;;;;15.52;100.00;99397.16;5032955;28;20292;-91
2023/08/03 06:52:57;;;;;;;8.15;2.03;;;;;;;15.53;100.00;99396.81;5033088;28;20107;-91
2023/08/03 06:55:22;;;;;;;12.30;2.38;;;;;;;15.65;100.00;99403.44;5029958;28;20052;-92
2023/08/03 06:57:48;;;;;;;8.82;2.00;;;;;;;15.66;100.00;99419.28;5010831;28;20025;-90
2023/08/03 07:00:14;;;;;;;11.73;2.50;;;;;;;15.69;100.00;99410.53;5031039;28;20360;-92
2023/08/03 07:02:40;;;;;;;12.10;2.33;;;;;;;15.79;100.00;99417.47;5028243;28;20037;-91
2023/08/03 07:05:06;;;;;;;10.57;2.08;;;;;;;15.87;100.00;99419.38;5038478;28;20086;-91
2023/08/03 07:07:31;;;;;;;17.10;2.43;;;;;;;15.94;100.00;99421.56;5043023;28;20037;-90
2023/08/03 07:09:57;;;;;;;10.43;2.20;;;;;;;16.08;100.00;99428.59;5029876;28;20428;-91
2023/08/03 07:12:22;;;;;;;5.93;1.90;;;;;;;15.99;100.00;99428.66;5042726;28;20025;-90
2023/08/03 07:14:47;;;;;;;6.40;1.57;;;;;;;15.96;100.00;99434.72;5041757;28;20037;-91
2023/08/03 07:17:13;;;;;;;9.00;1.60;;;;;;;15.92;100.00;99433.78;5032740;28;20022;-91
2023/08/03 07:20:26;;;;;;;7.55;2.13;;;;;;;16.00;100.00;99438.34;5043735;28;20023;-90
2023/08/03 07:22:52;;;;;;;6.20;1.60;;;;;;;16.08;100.00;99432.09;5032768;28;20464;-93
2023/08/03 07:25:17;;;;;;;8.47;1.43;;;;;;;16.48;100.00;99455.16;5034180;28;20056;-93
2023/08/03 07:27:44;;;;;;;8.63;1.30;;;;;;;16.57;100.00;99464.00;5034592;28;20021;-93
2023/08/03 07:30:09;;;;;;;5.72;1.75;;;;;;;16.57;100.00;99469.41;5035064;28;20523;-93
2023/08/03 07:32:35;;;;;;;4.03;1.25;;;;;;;16.68;100.00;99471.72;5037933;28;20029;-92
2023/08/03 07:35:01;;;;;;;7.03;1.30;;;;;;;16.68;100.00;99471.72;5023068;28;20060;-93
2023/08/03 07:40:45;;;;;;;8.68;1.83;;;;;;;16.88;100.00;99430.31;5372028;22;20060;-92
2023/08/03 07:43:11;;;;;;;6.30;1.77;;;;;;;17.17;100.00;99474.59;5037862;28;20025;-94
2023/08/03 07:54:45;;;;;;;8.05;1.80;;;;;;;16.89;100.00;99475.16;5039040;22;20045;-91
2023/08/03 07:57:15;;;;;;;7.87;1.60;;;;;;;16.77;100.00;99492.16;5029977;28;20031;-91
2023/08/03 07:59:40;;;;;;;12.70;2.08;;;;;;;16.61;100.00;99466.84;5010281;28;20021;-95
2023/08/03 08:02:06;;;;;;;10.77;1.90;;;;;;;16.65;100.00;99489.38;5017093;28;20037;-90
2023/08/03 08:04:31;;;;;;;10.63;1.90;;;;;;;16.62;100.00;99501.66;5032302;28;20527;-93
2023/08/03 08:06:57;;;;;;;8.07;1.93;;;;;;;16.52;100.00;99493.94;5033909;28;20028;-93
2023/08/03 08:09:22;;;;;;;6.47;1.63;;;;;;;16.61;100.00;99523.63;5032821;28;20026;-92
2023/08/03 08:11:48;;;;;;;7.53;1.98;;;;;;;16.45;100.00;99526.91;5036771;28;20100;-90
2023/08/03 08:14:13;;;;;;;13.60;2.70;;;;;;;16.34;100.00;99523.00;5015229;28;20433;-94
2023/08/03 08:16:38;;;;;;;11.50;2.37;;;;;;;16.37;100.00;99525.06;5029865;28;20492;-94
2023/08/03 08:19:07;;;;;;;11.05;2.20;;;;;;;16.48;100.00;99531.66;5038829;28;20041;-94
2023/08/03 08:21:32;;;;;;;8.27;1.73;;;;;;;16.60;100.00;99543.69;5040322;28;20049;-92
2023/08/03 08:23:59;;;;;;;66.28;16.05;;;;;;;16.61;100.00;99539.84;5042218;28;20041;-94
2023/08/03 08:28:58;;;;;;;12.70;1.85;;;;;;;16.95;100.00;99535.31;4991311;28;20054;-94
2023/08/03 08:31:24;;;;;;;8.02;1.80;;;;;;;17.23;100.00;99559.88;4985388;28;20027;-92
2023/08/03 08:33:50;;;;;;;8.00;1.77;;;;;;;17.22;100.00;99543.94;4994864;28;20074;-92
2023/08/03 08:36:20;;;;;;;9.82;1.83;;;;;;;17.39;100.00;99581.66;4987936;28;20026;-94
2023/08/03 08:38:46;;;;;;;9.77;1.70;;;;;;;17.20;100.00;99571.34;4993284;28;20018;-94
2023/08/03 08:41:11;;;;;;;7.13;1.50;;;;;;;17.19;100.00;99590.63;4996212;28;20030;-92
2023/08/03 08:43:39;;;;;;;5.77;1.27;;;;;;;16.80;100.00;99588.06;4994202;28;20659;-92
2023/08/03 08:46:05;;;;;;;6.63;1.55;;;;;;;16.73;100.00;99599.41;4995577;28;20089;-92
2023/08/03 08:48:30;;;;;;;6.57;1.35;;;;;;;16.63;100.00;99597.88;4993149;28;20037;-93
2023/08/03 08:51:00;;;;;;;8.47;1.60;;;;;;;16.58;100.00;99616.22;4994105;28;20034;-90
2023/08/03 08:53:25;;;;;;;12.88;1.88;;;;;;;16.57;100.00;99603.81;4989561;28;20106;-88
2023/08/03 08:55:51;;;;;;;8.50;1.60;;;;;;;16.61;100.00;99615.56;4992542;28;20035;-91
2023/08/03 08:58:16;;;;;;;5.37;2.00;;;;;;;16.70;100.00;99613.59;4992160;28;20038;-88
2023/08/03 09:00:46;;;;;;;6.20;1.05;;;;;;;16.67;100.00;99608.81;4993808;28;20029;-88
2023/08/03 09:03:13;;;;;;;6.03;1.03;;;;;;;16.74;100.00;99624.53;5008931;28;20034;-90
2023/08/03 09:05:39;;;;;;;4.70;1.57;;;;;;;16.74;100.00;99635.34;5009443;28;20285;-89
2023/08/03 09:08:22;;;;;;;3.53;1.08;;;;;;;16.61;100.00;99629.09;5006486;28;20053;-90
2023/08/03 09:10:53;;;;;;;5.05;1.20;;;;;;;16.49;100.00;99632.50;5006209;28;20042;-88
2023/08/03 09:13:31;;;;;;;6.55;1.20;;;;;;;16.39;100.00;99644.47;5005542;28;20260;-91
2023/08/03 09:15:57;;;;;;;3.50;1.00;;;;;;;16.37;100.00;99664.81;5000790;28;20030;-85
2023/08/03 09:18:25;;;;;;;2.53;1.00;;;;;;;16.26;100.00;99670.59;4999101;28;20184;-89
2023/08/03 09:20:50;;;;;;;4.88;1.10;;;;;;;16.18;100.00;99657.91;4992169;28;20109;-87
2023/08/03 09:23:30;;;;;;;5.47;1.48;;;;;;;16.17;100.00;99661.72;4991783;28;20106;-87
2023/08/03 09:25:55;;;;;;;3.78;1.13;;;;;;;16.38;100.00;99679.91;4990237;28;20067;-89
2023/08/03 09:28:34;;;;;;;6.67;1.20;;;;;;;16.60;100.00;99689.69;4993158;28;20042;-90
2023/08/03 09:30:59;;;;;;;5.90;1.50;;;;;;;16.76;100.00;99682.59;5007643;28;20046;-90
2023/08/03 09:33:25;;;;;;;2.83;1.43;;;;;;;16.97;100.00;99684.56;4991752;28;20030;-88
2023/08/03 09:36:14;;;;;;;3.33;1.10;;;;;;;17.01;100.00;99696.31;4990312;28;20062;-90
2023/08/03 09:38:40;;;;;;;2.83;1.08;;;;;;;16.95;100.00;99711.16;4989509;28;20092;-92
2023/08/03 09:41:06;;;;;;;6.55;1.40;;;;;;;16.75;100.00;99697.25;4988121;28;20080;-91
2023/08/03 09:43:39;;;;;;;3.53;1.23;;;;;;;16.69;100.00;99695.84;4987054;28;20023;-91
2023/08/03 09:46:05;;;;;;;4.43;1.40;;;;;;;17.04;100.00;99716.53;4986230;28;20026;-88
2023/08/03 09:48:31;;;;;;;5.57;1.40;;;;;;;17.41;100.00;99722.94;4993440;28;20027;-89
2023/08/03 09:50:58;;;;;;;5.00;1.70;;;;;;;17.91;100.00;99741.31;4991356;28;20025;-89
2023/08/03 09:53:37;;;;;;;5.20;1.80;;;;;;;18.39;100.00;99749.94;4992860;28;20007;-88
2023/08/03 09:56:05;;;;;;;8.95;1.88;;;;;;;18.42;100.00;99750.03;4990077;28;20050;-88
2023/08/03 09:58:47;;;;;;;7.72;1.70;;;;;;;18.35;100.00;99751.72;4991125;28;20030;-88
2023/08/03 10:01:15;;;;;;;5.45;1.42;;;;;;;18.29;100.00;99754.63;5007559;28;20010;-87
2023/08/03 10:03:44;;;;;;;7.57;1.80;;;;;;;18.32;100.00;99769.47;5004692;28;20367;-88
2023/08/03 10:06:17;;;;;;;9.35;2.08;;;;;;;18.57;100.00;99769.47;4991092;28;20023;-89
2023/08/03 10:09:00;;;;;;;8.23;2.00;;;;;;;19.04;100.00;99779.13;4992030;28;20077;-87
2023/08/03 10:11:29;;;;;;;9.73;2.40;;;;;;;19.32;100.00;99775.72;4991364;28;20284;-88
2023/08/03 10:14:00;;;;;;;7.22;1.67;;;;;;;19.81;100.00;99791.09;4990195;28;20026;-88
2023/08/03 10:16:27;;;;;;;8.68;2.22;;;;;;;20.00;100.00;99786.94;4992137;28;20018;-88
2023/08/03 10:18:54;;;;;;;9.30;2.25;;;;;;;20.00;100.00;99787.75;4995045;28;20019;-88
2023/08/03 10:21:19;;;;;;;5.28;1.75;;;;;;;20.11;100.00;99801.63;4995097;28;20026;-88
2023/08/03 10:24:17;;;;;;;4.60;1.67;;;;;;;20.28;100.00;99806.75;4995334;28;20046;-87
2023/08/03 10:26:48;;;;;;;8.45;1.80;;;;;;;20.51;100.00;99808.88;4995657;28;20545;-89
2023/08/03 10:29:14;;;;;;;6.35;1.60;;;;;;;20.87;100.00;99817.97;4999744;28;20645;-89
2023/08/03 10:31:53;;;;;;;6.73;1.60;;;;;;;21.22;100.00;99815.63;4996199;28;20025;-88
2023/08/03 10:34:29;;;;;;;5.88;1.50;;;;;;;21.52;100.00;99809.66;4992704;28;20042;-89
2023/08/03 10:36:56;;;;;;;4.70;1.60;;;;;;;21.82;100.00;99809.91;4995087;28;20046;-88
2023/08/03 10:39:48;;;;;;;4.93;1.48;;;;;;;22.09;100.00;99820.97;4982314;28;20018;-88
2023/08/03 10:42:20;;;;;;;4.45;1.45;;;;;;;22.79;100.00;99830.00;4976324;28;20022;-89
2023/08/03 10:44:46;;;;;;;4.50;1.30;;;;;;;23.17;100.00;99819.25;4976857;28;20046;-88
2023/08/03 10:47:26;;;;;;;6.23;1.80;;;;;;;23.29;100.00;99829.97;4977782;28;20015;-93
2023/08/03 10:49:53;;;;;;;3.95;1.52;;;;;;;22.43;100.00;99809.50;4992768;28;20114;-88
2023/08/03 10:52:22;;;;;;;5.65;1.63;;;;;;;22.09;100.00;99826.41;4994305;28;20031;-91
2023/08/03 10:54:48;;;;;;;5.25;1.50;;;;;;;21.69;100.00;99841.97;4992223;28;20164;-89
2023/08/03 10:57:16;;;;;;;4.15;1.40;;;;;;;21.48;100.00;99850.47;4994689;28;20486;-89
2023/08/03 10:59:47;;;;;;;2.93;1.70;;;;;;;21.24;100.00;99849.53;4994023;28;20030;-91
2023/08/03 11:02:28;;;;;;;5.75;1.77;;;;;;;21.79;100.00;99862.44;4996091;28;20023;-90
2023/08/03 11:04:53;;;;;;;4.75;1.73;;;;;;;22.06;100.00;99857.91;4996000;28;20038;-90
2023/08/03 11:07:23;;;;;;;6.07;1.70;;;;;;;21.91;100.00;99861.50;5011095;28;20074;-90
2023/08/03 11:09:52;;;;;;;5.07;1.70;;;;;;;21.78;100.00;99874.47;5002219;28;20402;-91
2023/08/03 11:12:18;;;;;;;8.20;1.70;;;;;;;21.99;100.00;99868.69;4996205;28;20349;-90
2023/08/03 11:14:45;;;;;;;5.45;1.85;;;;;;;21.73;100.00;99874.75;5016908;28;20015;-90
2023/08/03 11:17:12;;;;;;;4.45;1.60;;;;;;;21.13;100.00;99878.47;4994580;28;20117;-90
2023/08/03 11:19:38;;;;;;;4.18;1.55;;;;;;;20.59;100.00;99856.13;4992535;28;20042;-89
2023/08/03 11:22:05;;;;;;;7.20;1.73;;;;;;;20.37;100.00;99871.88;4994226;28;20034;-90
2023/08/03 11:24:31;;;;;;;7.30;2.30;;;;;;;20.57;100.00;99880.94;4994981;28;20053;-90
2023/08/03 11:26:57;;;;;;;11.40;2.20;;;;;;;20.19;100.00;99882.25;4993756;28;20332;-90
2023/08/03 11:29:23;;;;;;;26.52;2.42;;;;;;;19.29;100.00;99896.66;4982803;28;20077;-92
2023/08/03 11:31:49;;;;;;;43.08;2.97;;;;;;;18.39;100.00;99890.94;4983318;28;20042;-90
2023/08/03 11:34:14;;;;;;;6.57;2.13;;;;;;;17.82;100.00;99906.66;4990124;28;20030;-88
2023/08/03 11:36:46;;;;;;;12.43;2.90;;;;;;;17.66;100.00;99918.09;4993275;28;20041;-88
2023/08/03 11:39:11;;;;;;;14.90;3.20;;;;;;;17.74;100.00;99897.47;4991612;28;20483;-87
2023/08/03 11:41:37;;;;;;;11.37;3.23;;;;;;;17.83;100.00;99903.63;4991646;28;20030;-87
2023/08/03 11:44:06;;;;;;;10.43;3.70;;;;;;;17.96;100.00;99901.78;4992863;28;20049;-88
2023/08/03 11:46:31;;;;;;;15.20;3.90;;;;;;;18.04;100.00;99921.06;4993063;28;20277;-87
2023/08/03 11:48:58;;;;;;;14.23;3.38;;;;;;;17.97;100.00;99933.19;4992432;28;20022;-87
2023/08/03 11:51:33;;;;;;;11.93;2.80;;;;;;;17.96;100.00;99937.00;4993497;28;20022;-87
2023/08/03 11:54:06;;;;;;;6.35;2.28;;;;;;;18.17;100.00;99952.53;4992605;28;20117;-88
2023/08/03 11:56:34;;;;;;;5.65;1.92;;;;;;;18.33;100.00;99944.59;4991852;28;20026;-88
2023/08/03 11:59:01;;;;;;;6.50;2.15;;;;;;;18.60;100.00;99958.72;4990260;28;20422;-88
2023/08/03 12:01:27;;;;;;;10.63;2.97;;;;;;;18.86;100.00;99968.53;4992929;28;20030;-88
2023/08/03 12:04:10;;;;;;;5.15;2.30;;;;;;;19.01;100.00;99965.19;4993002;28;20022;-88
2023/08/03 12:06:46;;;;;;;6.72;2.35;;;;;;;18.76;100.00;99991.44;4991961;28;20026;-88
2023/08/03 12:09:25;;;;;;;5.88;2.30;;;;;;;18.46;100.00;99969.84;4991502;28;20023;-88
2023/08/03 12:11:50;;;;;;;8.83;2.30;;;;;;;18.61;100.00;99993.66;4991945;28;20034;-88